createdAt,value
2023-03-23T16:03:16.682Z,100368.31
2023-03-23T16:13:38.136Z,100329.38
2023-03-23T16:23:59.510Z,100348.50
2023-03-23T16:34:21.005Z,100362.44
2023-03-23T16:44:42.428Z,100359.03
2023-03-23T16:55:04.319Z,100368.63
2023-03-23T17:05:26.709Z,100382.22
2023-03-23T17:15:52.442Z,100396.38
2023-03-23T17:26:14.200Z,100402.66
2023-03-23T17:36:35.695Z,100415.06
2023-03-23T17:46:57.248Z,100427.69
2023-03-23T17:57:18.637Z,100423.47
2023-03-23T18:07:40.197Z,100400.00
2023-03-23T18:18:03.585Z,100402.28
2023-03-23T18:28:25.371Z,100406.78
2023-03-23T18:38:47.197Z,100429.63
2023-03-23T18:49:08.583Z,100413.25
2023-03-23T18:59:34.524Z,100410.41
2023-03-23T19:09:56.343Z,100393.22
2023-03-23T19:20:37.275Z,100393.94
2023-03-23T19:30:59.292Z,100368.09
2023-03-23T19:41:21.792Z,100387.78
2023-03-23T19:51:43.350Z,100370.75
2023-03-23T20:02:04.908Z,100363.97
2023-03-23T20:12:26.387Z,100350.84
2023-03-23T20:22:49.978Z,100354.91
2023-03-23T20:33:12.455Z,100345.66
2023-03-23T20:43:33.879Z,100327.88
2023-03-23T20:53:55.601Z,100320.25
2023-03-23T21:04:22.796Z,100313.22
2023-03-23T21:14:45.019Z,100296.63
2023-03-23T21:25:07.145Z,100275.00
2023-03-23T21:35:28.586Z,100263.81
2023-03-23T21:45:49.998Z,100243.59
2023-03-23T21:56:11.519Z,100229.84
2023-03-23T22:06:34.431Z,100212.69
2023-03-23T22:16:55.938Z,100199.72
2023-03-23T22:27:17.357Z,100173.81
2023-03-23T22:37:38.865Z,100167.63
2023-03-23T22:48:00.438Z,100146.84
2023-03-23T22:58:22.253Z,100135.00
2023-03-23T23:08:45.552Z,100115.47
2023-03-23T23:19:07.321Z,100103.63
2023-03-23T23:29:28.789Z,100083.16
2023-03-23T23:39:50.385Z,100072.19
2023-03-23T23:50:12.748Z,100059.69
